createdAt,value
2023-02-11T00:02:38.668Z,2.55
2023-02-11T00:05:18.598Z,2.95
2023-02-11T00:08:05.615Z,2.70
2023-02-11T00:10:52.589Z,2.92
2023-02-11T00:13:39.618Z,2.55
2023-02-11T00:16:29.658Z,2.58
2023-02-11T00:19:16.678Z,2.40
2023-02-11T00:21:56.618Z,2.55
2023-02-11T00:24:43.607Z,2.80
2023-02-11T00:27:23.679Z,2.20
2023-02-11T00:30:11.602Z,2.55
2023-02-11T00:32:51.679Z,2.80
2023-02-11T00:35:38.653Z,2.55
2023-02-11T00:38:18.686Z,2.20
2023-02-11T00:41:05.617Z,2.65
2023-02-11T00:43:53.612Z,3.20
2023-02-11T00:46:34.214Z,3.00
2023-02-11T00:49:23.627Z,2.75
2023-02-11T00:52:10.622Z,2.97
2023-02-11T00:54:57.603Z,2.97
2023-02-11T00:57:45.633Z,2.30
2023-02-11T01:00:32.618Z,2.70
2023-02-11T01:03:26.609Z,2.67
2023-02-11T01:06:15.634Z,3.08
2023-02-11T01:08:55.678Z,2.97
2023-02-11T01:11:42.619Z,2.63
2023-02-11T01:14:22.670Z,2.45
2023-02-11T01:17:12.627Z,2.47
2023-02-11T01:19:52.669Z,2.90
2023-02-11T01:22:40.610Z,2.95
2023-02-11T01:25:22.692Z,3.00
2023-02-11T01:28:09.692Z,2.47
2023-02-11T01:30:56.685Z,2.80
2023-02-11T01:33:45.630Z,3.10
2023-02-11T01:36:25.664Z,2.80
2023-02-11T01:39:14.620Z,2.60
2023-02-11T01:41:54.657Z,2.80
2023-02-11T01:44:45.636Z,2.40
2023-02-11T01:47:33.622Z,2.53
2023-02-11T01:50:20.651Z,2.85
2023-02-11T01:53:21.648Z,2.38
2023-02-11T01:56:29.631Z,2.30
2023-02-11T01:59:16.670Z,2.80
2023-02-11T02:02:09.614Z,2.70
2023-02-11T02:05:28.638Z,2.78
2023-02-11T02:08:35.679Z,2.85
2023-02-11T02:11:15.620Z,2.97
2023-02-11T02:14:02.614Z,2.83
2023-02-11T02:16:44.688Z,2.47
2023-02-11T02:19:46.609Z,3.05
2023-02-11T02:22:55.695Z,2.90
2023-02-11T02:25:59.610Z,2.63
2023-02-11T02:29:23.629Z,2.65
2023-02-11T02:32:29.620Z,2.92
2023-02-11T02:35:37.694Z,2.65
2023-02-11T02:38:27.629Z,3.08
2023-02-11T02:41:18.728Z,2.63
2023-02-11T02:43:59.630Z,2.33
2023-02-11T02:49:27.633Z,2.47
2023-02-11T02:52:33.528Z,2.47
2023-02-11T02:55:32.627Z,2.30
2023-02-11T02:58:33.705Z,2.45
2023-02-11T03:01:27.638Z,2.53
2023-02-11T03:04:43.687Z,3.10
2023-02-11T03:07:40.610Z,2.97
2023-02-11T03:10:33.683Z,2.92
2023-02-11T03:13:14.612Z,2.80
2023-02-11T03:18:45.627Z,3.08
2023-02-11T03:21:33.687Z,2.78
2023-02-11T03:24:18.632Z,2.88
2023-02-11T03:27:06.801Z,3.13
2023-02-11T03:29:58.617Z,2.88
2023-02-11T03:32:51.604Z,3.40
2023-02-11T03:35:46.631Z,2.70
2023-02-11T03:38:33.146Z,2.83
2023-02-11T03:41:21.628Z,3.47
2023-02-11T03:44:09.617Z,3.10
2023-02-11T03:47:01.643Z,3.17
2023-02-11T03:49:46.949Z,3.22
2023-02-11T03:52:36.640Z,3.30
2023-02-11T03:55:20.062Z,3.65
2023-02-11T03:58:06.619Z,3.75
2023-02-11T04:00:47.137Z,4.15
2023-02-11T04:03:33.670Z,3.20
2023-02-11T04:06:14.140Z,4.07
2023-02-11T04:09:00.630Z,3.63
2023-02-11T04:11:47.674Z,3.83
2023-02-11T04:14:27.628Z,3.90
2023-02-11T04:17:14.629Z,4.82
2023-02-11T04:20:01.675Z,3.75
2023-02-11T04:22:48.678Z,4.88
2023-02-11T04:25:28.618Z,4.38
2023-02-11T04:28:09.125Z,4.13
2023-02-11T04:30:55.625Z,4.35
2023-02-11T04:33:36.125Z,4.50
2023-02-11T04:36:22.629Z,4.53
2023-02-11T04:39:10.630Z,4.30
2023-02-11T04:42:04.632Z,4.72
2023-02-11T04:44:45.095Z,4.78
2023-02-11T04:47:31.629Z,5.22
2023-02-11T04:50:12.120Z,4.45
2023-02-11T04:52:58.638Z,5.35
2023-02-11T04:55:45.724Z,4.88
2023-02-11T04:58:26.622Z,4.90
2023-02-11T05:04:04.627Z,4.85
2023-02-11T05:06:45.145Z,5.47
2023-02-11T05:09:31.614Z,5.05
2023-02-11T05:12:18.650Z,5.80
2023-02-11T05:14:58.694Z,5.22
2023-02-11T05:17:45.625Z,5.13
2023-02-11T05:20:25.680Z,5.40
2023-02-11T05:23:12.621Z,5.85
2023-02-11T05:25:59.644Z,6.20
2023-02-11T05:28:42.119Z,6.30
2023-02-11T05:31:28.636Z,6.03
2023-02-11T05:34:15.749Z,6.45
2023-02-11T05:36:55.691Z,6.47
2023-02-11T05:39:42.631Z,5.85
2023-02-11T05:42:22.674Z,7.10
2023-02-11T05:45:09.643Z,6.60
2023-02-11T05:47:52.472Z,6.63
2023-02-11T05:50:38.641Z,6.65
2023-02-11T05:53:26.631Z,6.20
2023-02-11T05:56:13.626Z,5.93
2023-02-11T05:59:00.910Z,6.50
2023-02-11T06:01:47.695Z,6.97
2023-02-11T06:04:27.648Z,6.40
2023-02-11T06:07:14.707Z,6.90
2023-02-11T06:09:54.622Z,6.60
2023-02-11T06:12:44.779Z,6.57
2023-02-11T06:15:24.637Z,7.25
2023-02-11T06:18:05.457Z,7.43
2023-02-11T06:20:52.608Z,7.05
2023-02-11T06:23:33.131Z,7.03
2023-02-11T06:26:22.625Z,7.20
2023-02-11T06:29:09.619Z,6.95
2023-02-11T06:31:56.823Z,7.30
2023-02-11T06:34:37.978Z,8.30
2023-02-11T06:40:18.702Z,6.82
2023-02-11T06:43:05.706Z,6.90
2023-02-11T06:45:45.645Z,7.65
2023-02-11T06:48:32.688Z,7.60
2023-02-11T06:51:18.645Z,7.43
2023-02-11T06:54:05.621Z,7.55
2023-02-11T06:56:56.653Z,8.05
2023-02-11T06:59:37.135Z,8.00
2023-02-11T07:02:24.835Z,8.20
2023-02-11T07:05:13.710Z,8.05
2023-02-11T07:07:53.609Z,8.07
2023-02-11T07:10:34.183Z,8.23
2023-02-11T07:13:20.638Z,7.07
2023-02-11T07:16:05.838Z,7.85
2023-02-11T07:18:53.628Z,8.07
2023-02-11T07:21:40.622Z,8.23
2023-02-11T07:24:20.682Z,8.30
2023-02-11T07:27:07.618Z,9.77
2023-02-11T07:29:55.636Z,7.68
2023-02-11T07:32:36.143Z,7.28
2023-02-11T07:35:22.645Z,8.25
2023-02-11T07:38:09.626Z,8.30
2023-02-11T07:40:49.681Z,7.72
2023-02-11T07:43:37.651Z,8.70
2023-02-11T07:46:23.783Z,7.85
2023-02-11T07:49:10.635Z,8.93
2023-02-11T07:51:57.627Z,7.10
2023-02-11T07:54:44.653Z,7.32
2023-02-11T08:00:12.636Z,9.18
2023-02-11T08:02:59.622Z,8.65
2023-02-11T08:08:26.646Z,8.25
2023-02-11T08:11:22.703Z,6.60
2023-02-11T08:14:03.646Z,7.10
2023-02-11T08:16:50.695Z,7.95
2023-02-11T08:19:31.003Z,7.80
2023-02-11T08:22:18.634Z,6.88
2023-02-11T08:27:45.645Z,7.45
2023-02-11T08:33:14.616Z,7.38
2023-02-11T08:35:54.731Z,7.53
2023-02-11T08:38:41.619Z,7.55
2023-02-11T08:44:08.624Z,8.35
2023-02-11T08:46:55.641Z,8.93
2023-02-11T08:52:22.681Z,7.32
2023-02-11T08:55:09.636Z,7.35
2023-02-11T09:00:37.632Z,7.65
2023-02-11T09:03:18.686Z,6.65
2023-02-11T09:06:06.643Z,8.30
2023-02-11T09:08:49.795Z,7.68
2023-02-11T09:11:41.625Z,7.88
2023-02-11T09:14:27.688Z,6.72
2023-02-11T09:17:14.627Z,6.85
2023-02-11T09:19:54.697Z,6.95
2023-02-11T09:22:41.630Z,7.13
2023-02-11T09:28:08.698Z,6.95
2023-02-11T09:33:47.759Z,8.15
2023-02-11T09:36:29.639Z,7.35
2023-02-11T09:39:20.667Z,6.70
2023-02-11T09:42:47.629Z,7.05
2023-02-11T09:45:30.197Z,6.90
2023-02-11T09:48:26.686Z,6.65
2023-02-11T09:51:27.765Z,7.03
2023-02-11T09:54:20.646Z,6.45
2023-02-11T09:57:14.291Z,7.47
2023-02-11T09:59:59.652Z,6.70
2023-02-11T10:03:15.522Z,7.30
2023-02-11T10:06:28.640Z,6.63
2023-02-11T10:09:09.075Z,6.50
2023-02-11T10:12:01.655Z,6.47
2023-02-11T10:18:16.668Z,6.25
2023-02-11T10:21:22.649Z,7.50
2023-02-11T10:24:13.656Z,6.90
2023-02-11T10:27:00.650Z,6.82
2023-02-11T10:29:46.692Z,7.03
2023-02-11T10:32:49.648Z,7.15
2023-02-11T10:35:30.697Z,6.30
2023-02-11T10:38:18.656Z,5.60
2023-02-11T10:40:58.706Z,7.30
2023-02-11T10:43:40.658Z,6.78
2023-02-11T10:46:29.468Z,6.55
2023-02-11T10:49:09.630Z,6.18
2023-02-11T10:51:56.657Z,6.35
2023-02-11T10:54:37.118Z,6.22
2023-02-11T10:57:32.659Z,5.47
2023-02-11T11:00:43.636Z,5.85
2023-02-11T11:03:26.717Z,6.43
2023-02-11T11:06:16.659Z,5.25
2023-02-11T11:08:58.688Z,6.53
2023-02-11T11:11:59.653Z,6.13
2023-02-11T11:14:39.720Z,5.70
2023-02-11T11:17:26.674Z,6.22
2023-02-11T11:20:29.776Z,5.47
2023-02-11T11:23:27.673Z,6.25
2023-02-11T11:26:19.725Z,5.63
2023-02-11T11:29:19.662Z,5.40
2023-02-11T11:32:09.783Z,4.47
2023-02-11T11:35:06.633Z,5.40
2023-02-11T11:37:47.719Z,5.28
2023-02-11T11:40:36.649Z,5.47
2023-02-11T11:43:26.678Z,5.63
2023-02-11T11:46:12.171Z,4.90
2023-02-11T11:49:02.674Z,5.22
2023-02-11T11:51:57.764Z,4.95
2023-02-11T11:54:40.633Z,4.75
2023-02-11T11:57:26.250Z,5.30
2023-02-11T12:00:12.642Z,4.55
2023-02-11T12:03:04.967Z,4.68
2023-02-11T12:06:02.659Z,4.00
2023-02-11T12:09:04.718Z,4.15
2023-02-11T12:11:56.637Z,4.38
2023-02-11T12:15:05.709Z,4.38
2023-02-11T12:18:08.651Z,4.32
2023-02-11T12:21:26.656Z,4.22
2023-02-11T12:24:16.276Z,4.18
2023-02-11T12:27:08.636Z,3.60
2023-02-11T12:30:25.706Z,3.78
2023-02-11T12:33:27.624Z,3.80
2023-02-11T12:36:43.662Z,3.90
2023-02-11T12:39:48.699Z,4.03
2023-02-11T12:43:28.656Z,3.80
2023-02-11T12:46:36.649Z,3.67
2023-02-11T12:49:44.707Z,3.10
2023-02-11T12:52:42.638Z,3.80
2023-02-11T12:55:38.706Z,3.83
2023-02-11T12:58:43.995Z,3.60
2023-02-11T13:01:33.771Z,3.22
2023-02-11T13:04:30.663Z,3.63
2023-02-11T13:07:25.666Z,3.97
2023-02-11T13:10:38.662Z,3.70
2023-02-11T13:13:51.668Z,3.30
2023-02-11T13:16:47.783Z,3.78
2023-02-11T13:19:43.650Z,3.72
2023-02-11T13:22:40.714Z,3.30
2023-02-11T13:25:49.662Z,2.80
2023-02-11T13:28:52.714Z,2.80
2023-02-11T13:31:34.733Z,2.97
2023-02-11T13:34:43.687Z,3.30
2023-02-11T13:37:40.667Z,3.83
2023-02-11T13:40:40.731Z,3.30
2023-02-11T13:43:34.662Z,3.42
2023-02-11T13:46:15.842Z,3.22
2023-02-11T13:49:04.661Z,3.50
2023-02-11T13:51:58.646Z,2.80
2023-02-11T13:54:46.655Z,3.33
2023-02-11T13:57:26.727Z,3.45
2023-02-11T14:00:33.726Z,2.90
2023-02-11T14:03:44.660Z,3.53
2023-02-11T14:06:53.270Z,3.40
2023-02-11T14:09:44.664Z,3.38
2023-02-11T14:12:37.742Z,3.25
2023-02-11T14:18:04.716Z,3.08
2023-02-11T14:20:50.935Z,2.83
2023-02-11T14:23:31.244Z,2.92
2023-02-11T14:26:48.666Z,2.42
2023-02-11T14:29:41.657Z,3.28
2023-02-11T14:32:28.746Z,3.60
2023-02-11T14:35:18.667Z,3.08
2023-02-11T14:38:37.715Z,3.22
2023-02-11T14:41:32.056Z,3.53
2023-02-11T14:44:22.659Z,2.50
2023-02-11T14:47:03.358Z,3.22
2023-02-11T14:49:52.694Z,3.22
2023-02-11T14:52:42.682Z,3.47
2023-02-11T14:55:45.679Z,3.35
2023-02-11T14:58:37.676Z,3.45
2023-02-11T15:01:44.698Z,3.40
2023-02-11T15:04:46.671Z,3.28
2023-02-11T15:07:33.675Z,3.60
2023-02-11T15:10:28.659Z,2.70
2023-02-11T15:13:21.685Z,3.20
2023-02-11T15:19:01.676Z,2.50
2023-02-11T15:21:52.897Z,3.20
2023-02-11T15:24:38.689Z,3.00
2023-02-11T15:27:27.676Z,3.22
2023-02-11T15:30:07.746Z,2.70
2023-02-11T15:33:00.750Z,3.35
2023-02-11T15:35:45.864Z,3.50
2023-02-11T15:38:33.686Z,3.35
2023-02-11T15:41:14.756Z,2.80
2023-02-11T15:44:01.685Z,3.70
2023-02-11T15:46:47.362Z,3.20
2023-02-11T15:49:33.697Z,3.10
2023-02-11T15:52:21.678Z,3.00
2023-02-11T15:55:02.809Z,2.92
2023-02-11T15:57:49.686Z,3.47
2023-02-11T16:03:34.832Z,3.45
2023-02-11T16:06:26.692Z,3.33
2023-02-11T16:09:22.699Z,2.38
2023-02-11T16:12:29.226Z,3.45
2023-02-11T16:15:40.683Z,3.05
2023-02-11T16:18:40.112Z,3.10
2023-02-11T16:21:23.749Z,3.13
2023-02-11T16:24:12.683Z,3.17
2023-02-11T16:27:03.675Z,2.95
2023-02-11T16:29:54.689Z,2.72
2023-02-11T16:32:38.505Z,3.17
2023-02-11T16:35:24.693Z,2.60
2023-02-11T16:38:11.682Z,2.88
2023-02-11T16:43:38.688Z,3.50
2023-02-11T16:46:27.417Z,3.33
2023-02-11T16:49:17.694Z,2.80
2023-02-11T16:52:05.776Z,2.95
2023-02-11T16:54:52.695Z,3.47
2023-02-11T16:57:39.694Z,3.50
2023-02-11T17:03:15.694Z,3.15
2023-02-11T17:06:11.675Z,3.60
2023-02-11T17:08:58.686Z,3.13
2023-02-11T17:14:32.693Z,3.78
2023-02-11T17:19:59.709Z,3.85
2023-02-11T17:25:26.683Z,3.40
2023-02-11T17:30:53.702Z,3.60
2023-02-11T17:36:27.684Z,3.40
2023-02-11T17:41:54.684Z,3.53
2023-02-11T17:47:21.701Z,3.58
2023-02-11T17:52:49.687Z,3.53
2023-02-11T17:55:29.748Z,3.63
2023-02-11T17:58:16.676Z,3.88
2023-02-11T18:03:43.677Z,3.70
2023-02-11T18:06:23.749Z,4.30
2023-02-11T18:09:10.690Z,3.67
2023-02-11T18:14:47.686Z,4.45
2023-02-11T18:17:28.789Z,4.10
2023-02-11T18:20:15.683Z,3.08
2023-02-11T18:25:42.688Z,4.20
2023-02-11T18:31:10.687Z,4.40
2023-02-11T18:33:52.951Z,4.60
2023-02-11T18:36:40.691Z,4.80
2023-02-11T18:39:20.774Z,4.53
2023-02-11T18:42:07.687Z,4.60
2023-02-11T18:44:47.737Z,4.20
2023-02-11T18:47:35.690Z,4.40
2023-02-11T18:50:17.779Z,4.47
2023-02-11T18:53:04.703Z,4.68
2023-02-11T18:58:31.714Z,4.95
2023-02-11T19:04:03.707Z,5.07
2023-02-11T19:07:01.699Z,5.00
2023-02-11T19:09:49.009Z,4.80
2023-02-11T19:12:28.705Z,5.07
2023-02-11T19:15:15.826Z,4.82
2023-02-11T19:20:39.670Z,5.15
2023-02-11T19:23:26.696Z,5.20
2023-02-11T19:26:07.249Z,4.68
2023-02-11T19:28:53.703Z,4.60
2023-02-11T19:34:22.728Z,5.50
2023-02-11T19:37:09.697Z,5.00
2023-02-11T19:39:56.714Z,4.93
2023-02-11T19:45:23.720Z,4.90
2023-02-11T19:48:11.695Z,4.90
2023-02-11T19:50:51.836Z,4.80
2023-02-11T19:53:38.697Z,4.85
2023-02-11T19:59:08.706Z,5.20
2023-02-11T20:01:49.118Z,5.30
2023-02-11T20:04:38.709Z,4.95
2023-02-11T20:07:25.753Z,5.20
2023-02-11T20:12:53.692Z,5.18
2023-02-11T20:15:40.709Z,4.65
2023-02-11T20:18:27.764Z,4.90
2023-02-11T20:21:13.692Z,5.55
2023-02-11T20:23:54.576Z,4.82
2023-02-11T20:26:48.915Z,4.80
2023-02-11T20:29:37.706Z,4.78
2023-02-11T20:32:24.706Z,4.70
2023-02-11T20:37:51.697Z,4.75
2023-02-11T20:40:42.181Z,4.70
2023-02-11T20:43:22.702Z,4.72
2023-02-11T20:46:11.714Z,4.65
2023-02-11T20:48:51.737Z,5.15
2023-02-11T20:51:40.688Z,4.90
2023-02-11T20:54:30.681Z,5.07
2023-02-11T20:57:17.698Z,5.38
2023-02-11T21:02:44.717Z,5.22
2023-02-11T21:05:24.789Z,4.93
2023-02-11T21:08:11.709Z,5.05
2023-02-11T21:10:51.753Z,5.25
2023-02-11T21:13:38.698Z,5.55
2023-02-11T21:16:23.802Z,5.00
2023-02-11T21:19:11.700Z,4.82
2023-02-11T21:21:51.821Z,5.00
2023-02-11T21:24:38.703Z,5.32
2023-02-11T21:27:25.693Z,5.60
2023-02-11T21:32:52.746Z,5.40
2023-02-11T21:35:43.722Z,5.18
2023-02-11T21:38:23.945Z,4.95
2023-02-11T21:41:11.738Z,5.70
2023-02-11T21:43:51.767Z,4.75
2023-02-11T21:46:38.780Z,5.20
2023-02-11T21:49:20.139Z,4.72
2023-02-11T21:52:06.714Z,4.53
2023-02-11T21:57:33.712Z,5.20
2023-02-11T22:00:14.749Z,4.70
2023-02-11T22:03:01.746Z,5.45
2023-02-11T22:05:48.720Z,5.32
2023-02-11T22:11:18.779Z,4.93
2023-02-11T22:14:05.727Z,5.22
2023-02-11T22:16:46.055Z,4.95
2023-02-11T22:19:32.698Z,5.10
2023-02-11T22:22:18.074Z,5.35
2023-02-11T22:25:06.718Z,5.63
2023-02-11T22:27:46.923Z,5.40
2023-02-11T22:30:33.715Z,5.60
2023-02-11T22:33:13.785Z,5.15
2023-02-11T22:36:07.710Z,5.80
2023-02-11T22:38:47.806Z,5.75
2023-02-11T22:41:34.720Z,5.00
2023-02-11T22:44:16.325Z,5.45
2023-02-11T22:49:42.794Z,5.57
2023-02-11T22:52:30.694Z,5.53
2023-02-11T22:55:10.766Z,5.90
2023-02-11T22:57:57.706Z,6.38
2023-02-11T23:03:29.693Z,5.72
2023-02-11T23:06:16.724Z,5.57
2023-02-11T23:08:57.405Z,5.40
2023-02-11T23:11:44.711Z,5.82
2023-02-11T23:14:27.986Z,6.53
2023-02-11T23:17:14.707Z,6.32
2023-02-11T23:20:02.211Z,6.55
2023-02-11T23:25:28.720Z,6.25
2023-02-11T23:28:15.773Z,6.22
2023-02-11T23:33:42.717Z,6.85
2023-02-11T23:36:29.759Z,6.88
2023-02-11T23:39:10.722Z,6.68
2023-02-11T23:41:58.732Z,6.75
2023-02-11T23:44:38.748Z,6.45
2023-02-11T23:47:25.714Z,6.88
2023-02-11T23:50:12.720Z,7.13
2023-02-11T23:52:53.219Z,6.70
2023-02-11T23:55:47.712Z,7.05
2023-02-11T23:58:35.085Z,7.15
